sensor_id;sensor_type;location;lat;lon;timestamp;temperature;humidity
65207;SHT31;58477;48.072;11.970;2023-03-01T00:00:53;0.05;84.97
65207;SHT31;58477;48.072;11.970;2023-03-01T00:03:18;0.04;85.19
65207;SHT31;58477;48.072;11.970;2023-03-01T00:05:47;0.13;84.90
65207;SHT31;58477;48.072;11.970;2023-03-01T00:08:12;0.10;85.10
65207;SHT31;58477;48.072;11.970;2023-03-01T00:10:38;0.08;84.98
65207;SHT31;58477;48.072;11.970;2023-03-01T00:13:04;0.08;85.05
65207;SHT31;58477;48.072;11.970;2023-03-01T00:15:33;0.10;84.87
65207;SHT31;58477;48.072;11.970;2023-03-01T00:18:00;0.07;84.68
65207;SHT31;58477;48.072;11.970;2023-03-01T00:20:25;0.10;84.93
65207;SHT31;58477;48.072;11.970;2023-03-01T00:22:51;-0.02;84.89
65207;SHT31;58477;48.072;11.970;2023-03-01T00:25:16;-0.05;85.15
65207;SHT31;58477;48.072;11.970;2023-03-01T00:27:41;-0.03;85.14
65207;SHT31;58477;48.072;11.970;2023-03-01T00:30:07;-0.03;85.06
65207;SHT31;58477;48.072;11.970;2023-03-01T00:32:33;0.00;84.84
65207;SHT31;58477;48.072;11.970;2023-03-01T00:34:58;-0.05;84.79
65207;SHT31;58477;48.072;11.970;2023-03-01T00:37:24;-0.07;85.40
65207;SHT31;58477;48.072;11.970;2023-03-01T00:39:49;-0.02;84.92
65207;SHT31;58477;48.072;11.970;2023-03-01T00:42:15;-0.05;85.06
65207;SHT31;58477;48.072;11.970;2023-03-01T00:44:41;-0.09;85.33
65207;SHT31;58477;48.072;11.970;2023-03-01T00:47:07;-0.06;85.22
65207;SHT31;58477;48.072;11.970;2023-03-01T00:49:32;-0.06;85.10
65207;SHT31;58477;48.072;11.970;2023-03-01T00:51:58;-0.09;85.40
65207;SHT31;58477;48.072;11.970;2023-03-01T00:54:23;-0.07;85.28
65207;SHT31;58477;48.072;11.970;2023-03-01T00:56:48;-0.10;85.59
65207;SHT31;58477;48.072;11.970;2023-03-01T00:59:14;-0.07;85.06
65207;SHT31;58477;48.072;11.970;2023-03-01T01:01:39;-0.19;85.38
65207;SHT31;58477;48.072;11.970;2023-03-01T01:04:08;-0.10;85.22
65207;SHT31;58477;48.072;11.970;2023-03-01T01:06:38;-0.14;85.27
65207;SHT31;58477;48.072;11.970;2023-03-01T01:09:05;-0.07;85.01
65207;SHT31;58477;48.072;11.970;2023-03-01T01:11:32;-0.07;85.04
65207;SHT31;58477;48.072;11.970;2023-03-01T01:13:58;-0.11;85.15
65207;SHT31;58477;48.072;11.970;2023-03-01T01:16:25;-0.07;85.18
65207;SHT31;58477;48.072;11.970;2023-03-01T01:18:51;-0.20;85.22
65207;SHT31;58477;48.072;11.970;2023-03-01T01:21:20;-0.16;85.46
65207;SHT31;58477;48.072;11.970;2023-03-01T01:23:46;-0.16;85.39
65207;SHT31;58477;48.072;11.970;2023-03-01T01:26:32;-0.14;85.56
65207;SHT31;58477;48.072;11.970;2023-03-01T01:28:59;-0.09;85.36
65207;SHT31;58477;48.072;11.970;2023-03-01T01:31:26;-0.07;85.04
65207;SHT31;58477;48.072;11.970;2023-03-01T01:33:53;-0.06;85.18
65207;SHT31;58477;48.072;11.970;2023-03-01T01:36:19;-0.16;84.94
65207;SHT31;58477;48.072;11.970;2023-03-01T01:38:44;-0.11;85.07
65207;SHT31;58477;48.072;11.970;2023-03-01T01:41:11;-0.19;85.39
65207;SHT31;58477;48.072;11.970;2023-03-01T01:43:40;-0.19;85.34
65207;SHT31;58477;48.072;11.970;2023-03-01T01:48:57;-0.23;85.44
65207;SHT31;58477;48.072;11.970;2023-03-01T01:51:27;-0.19;85.18
65207;SHT31;58477;48.072;11.970;2023-03-01T01:53:57;-0.24;85.62
65207;SHT31;58477;48.072;11.970;2023-03-01T01:56:25;-0.20;85.42
65207;SHT31;58477;48.072;11.970;2023-03-01T01:58:52;-0.24;85.14
65207;SHT31;58477;48.072;11.970;2023-03-01T02:01:18;-0.33;85.50
65207;SHT31;58477;48.072;11.970;2023-03-01T02:03:45;-0.30;85.46
65207;SHT31;58477;48.072;11.970;2023-03-01T02:08:51;-0.33;85.55
65207;SHT31;58477;48.072;11.970;2023-03-01T02:11:18;-0.31;85.55
65207;SHT31;58477;48.072;11.970;2023-03-01T02:13:47;-0.34;85.16
65207;SHT31;58477;48.072;11.970;2023-03-01T02:16:14;-0.38;85.13
65207;SHT31;58477;48.072;11.970;2023-03-01T02:18:41;-0.41;85.48
65207;SHT31;58477;48.072;11.970;2023-03-01T02:21:29;-0.44;85.45
65207;SHT31;58477;48.072;11.970;2023-03-01T02:23:55;-0.44;85.36
65207;SHT31;58477;48.072;11.970;2023-03-01T02:26:40;-0.45;85.46
65207;SHT31;58477;48.072;11.970;2023-03-01T02:29:06;-0.45;85.23
65207;SHT31;58477;48.072;11.970;2023-03-01T02:31:32;-0.41;85.03
65207;SHT31;58477;48.072;11.970;2023-03-01T02:34:13;-0.47;85.22
65207;SHT31;58477;48.072;11.970;2023-03-01T02:36:51;-0.45;85.52
65207;SHT31;58477;48.072;11.970;2023-03-01T02:39:24;-0.44;85.00
65207;SHT31;58477;48.072;11.970;2023-03-01T02:41:52;-0.50;85.06
65207;SHT31;58477;48.072;11.970;2023-03-01T02:44:18;-0.50;84.94
65207;SHT31;58477;48.072;11.970;2023-03-01T02:46:50;-0.53;85.04
65207;SHT31;58477;48.072;11.970;2023-03-01T02:49:19;-0.60;85.12
65207;SHT31;58477;48.072;11.970;2023-03-01T02:54:54;-0.61;85.68
65207;SHT31;58477;48.072;11.970;2023-03-01T02:57:22;-0.64;85.30
65207;SHT31;58477;48.072;11.970;2023-03-01T02:59:49;-0.61;84.95
65207;SHT31;58477;48.072;11.970;2023-03-01T03:02:25;-0.67;85.21
65207;SHT31;58477;48.072;11.970;2023-03-01T03:05:14;-0.67;85.38
65207;SHT31;58477;48.072;11.970;2023-03-01T03:07:42;-0.74;85.36
65207;SHT31;58477;48.072;11.970;2023-03-01T03:10:14;-0.68;85.40
65207;SHT31;58477;48.072;11.970;2023-03-01T03:12:40;-0.61;85.33
65207;SHT31;58477;48.072;11.970;2023-03-01T03:15:08;-0.72;85.73
65207;SHT31;58477;48.072;11.970;2023-03-01T03:17:36;-0.70;85.53
65207;SHT31;58477;48.072;11.970;2023-03-01T03:20:04;-0.78;85.38
65207;SHT31;58477;48.072;11.970;2023-03-01T03:22:30;-0.78;85.11
65207;SHT31;58477;48.072;11.970;2023-03-01T03:24:56;-0.82;85.50
65207;SHT31;58477;48.072;11.970;2023-03-01T03:27:21;-0.78;85.35
65207;SHT31;58477;48.072;11.970;2023-03-01T03:29:46;-0.81;85.31
65207;SHT31;58477;48.072;11.970;2023-03-01T03:32:12;-0.81;85.51
65207;SHT31;58477;48.072;11.970;2023-03-01T03:34:37;-0.85;85.46
65207;SHT31;58477;48.072;11.970;2023-03-01T03:37:03;-0.89;85.32
65207;SHT31;58477;48.072;11.970;2023-03-01T03:39:28;-0.94;84.93
65207;SHT31;58477;48.072;11.970;2023-03-01T03:42:00;-0.95;85.36
65207;SHT31;58477;48.072;11.970;2023-03-01T03:44:25;-1.01;85.09
65207;SHT31;58477;48.072;11.970;2023-03-01T03:46:51;-0.98;85.45
65207;SHT31;58477;48.072;11.970;2023-03-01T03:49:16;-1.02;85.34
65207;SHT31;58477;48.072;11.970;2023-03-01T03:51:41;-1.01;85.46
65207;SHT31;58477;48.072;11.970;2023-03-01T03:54:07;-0.98;85.44
65207;SHT31;58477;48.072;11.970;2023-03-01T03:56:32;-0.98;85.36
65207;SHT31;58477;48.072;11.970;2023-03-01T03:58:58;-0.98;85.32
65207;SHT31;58477;48.072;11.970;2023-03-01T04:01:23;-1.02;85.40
65207;SHT31;58477;48.072;11.970;2023-03-01T04:03:48;-0.98;85.16
65207;SHT31;58477;48.072;11.970;2023-03-01T04:06:19;-1.06;85.19
65207;SHT31;58477;48.072;11.970;2023-03-01T04:08:45;-1.18;85.29
65207;SHT31;58477;48.072;11.970;2023-03-01T04:11:11;-1.22;85.40
65207;SHT31;58477;48.072;11.970;2023-03-01T04:13:54;-1.29;85.57
65207;SHT31;58477;48.072;11.970;2023-03-01T04:16:20;-1.32;85.69
65207;SHT31;58477;48.072;11.970;2023-03-01T04:18:46;-1.28;85.88
65207;SHT31;58477;48.072;11.970;2023-03-01T04:21:12;-1.22;86.01
65207;SHT31;58477;48.072;11.970;2023-03-01T04:23:37;-1.35;85.91
65207;SHT31;58477;48.072;11.970;2023-03-01T04:26:03;-1.40;86.05
65207;SHT31;58477;48.072;11.970;2023-03-01T04:28:35;-1.32;86.21
65207;SHT31;58477;48.072;11.970;2023-03-01T04:31:06;-1.32;85.65
65207;SHT31;58477;48.072;11.970;2023-03-01T04:33:39;-1.48;86.12
65207;SHT31;58477;48.072;11.970;2023-03-01T04:36:05;-1.40;85.88
65207;SHT31;58477;48.072;11.970;2023-03-01T04:38:34;-1.43;86.01
65207;SHT31;58477;48.072;11.970;2023-03-01T04:41:01;-1.52;86.16
65207;SHT31;58477;48.072;11.970;2023-03-01T04:43:28;-1.50;86.14
65207;SHT31;58477;48.072;11.970;2023-03-01T04:45:54;-1.52;86.19
65207;SHT31;58477;48.072;11.970;2023-03-01T04:48:19;-1.55;86.35
65207;SHT31;58477;48.072;11.970;2023-03-01T04:50:44;-1.55;86.37
65207;SHT31;58477;48.072;11.970;2023-03-01T04:53:10;-1.56;86.03
65207;SHT31;58477;48.072;11.970;2023-03-01T04:55:35;-1.59;86.40
65207;SHT31;58477;48.072;11.970;2023-03-01T04:58:01;-1.59;86.62
65207;SHT31;58477;48.072;11.970;2023-03-01T05:00:26;-1.69;86.36
65207;SHT31;58477;48.072;11.970;2023-03-01T05:02:54;-1.71;86.45
65207;SHT31;58477;48.072;11.970;2023-03-01T05:05:26;-1.77;86.32
65207;SHT31;58477;48.072;11.970;2023-03-01T05:07:53;-1.70;86.56
65207;SHT31;58477;48.072;11.970;2023-03-01T05:10:20;-1.70;86.59
65207;SHT31;58477;48.072;11.970;2023-03-01T05:12:45;-1.66;86.37
65207;SHT31;58477;48.072;11.970;2023-03-01T05:15:11;-1.66;86.35
65207;SHT31;58477;48.072;11.970;2023-03-01T05:17:37;-1.74;86.80
65207;SHT31;58477;48.072;11.970;2023-03-01T05:20:03;-1.73;86.39
65207;SHT31;58477;48.072;11.970;2023-03-01T05:22:33;-1.79;86.76
65207;SHT31;58477;48.072;11.970;2023-03-01T05:24:59;-1.80;86.59
65207;SHT31;58477;48.072;11.970;2023-03-01T05:27:24;-1.76;86.76
65207;SHT31;58477;48.072;11.970;2023-03-01T05:29:50;-1.73;86.95
65207;SHT31;58477;48.072;11.970;2023-03-01T05:32:15;-1.69;86.61
65207;SHT31;58477;48.072;11.970;2023-03-01T05:34:41;-1.73;86.65
65207;SHT31;58477;48.072;11.970;2023-03-01T05:37:07;-1.76;86.53
65207;SHT31;58477;48.072;11.970;2023-03-01T05:39:33;-1.77;87.01
65207;SHT31;58477;48.072;11.970;2023-03-01T05:42:00;-1.73;86.88
65207;SHT31;58477;48.072;11.970;2023-03-01T05:44:29;-1.73;86.69
65207;SHT31;58477;48.072;11.970;2023-03-01T05:46:55;-1.79;86.87
65207;SHT31;58477;48.072;11.970;2023-03-01T05:49:22;-1.77;86.74
65207;SHT31;58477;48.072;11.970;2023-03-01T05:51:51;-1.77;87.28
65207;SHT31;58477;48.072;11.970;2023-03-01T05:54:17;-1.84;87.03
65207;SHT31;58477;48.072;11.970;2023-03-01T05:56:43;-1.74;86.66
65207;SHT31;58477;48.072;11.970;2023-03-01T05:59:10;-1.81;86.79
65207;SHT31;58477;48.072;11.970;2023-03-01T06:01:36;-1.80;86.82
65207;SHT31;58477;48.072;11.970;2023-03-01T06:04:02;-1.77;86.75
65207;SHT31;58477;48.072;11.970;2023-03-01T06:06:27;-1.76;87.06
65207;SHT31;58477;48.072;11.970;2023-03-01T06:08:53;-1.77;86.67
65207;SHT31;58477;48.072;11.970;2023-03-01T06:11:20;-1.76;87.31
65207;SHT31;58477;48.072;11.970;2023-03-01T06:13:45;-1.79;86.99
65207;SHT31;58477;48.072;11.970;2023-03-01T06:16:12;-1.81;87.01
65207;SHT31;58477;48.072;11.970;2023-03-01T06:18:37;-1.81;87.10
65207;SHT31;58477;48.072;11.970;2023-03-01T06:21:04;-1.81;87.27
65207;SHT31;58477;48.072;11.970;2023-03-01T06:23:30;-1.77;86.99
65207;SHT31;58477;48.072;11.970;2023-03-01T06:25:56;-1.71;87.09
65207;SHT31;58477;48.072;11.970;2023-03-01T06:28:25;-1.74;86.87
65207;SHT31;58477;48.072;11.970;2023-03-01T06:30:51;-1.69;86.74
65207;SHT31;58477;48.072;11.970;2023-03-01T06:33:17;-1.63;86.70
65207;SHT31;58477;48.072;11.970;2023-03-01T06:35:45;-1.63;86.87
65207;SHT31;58477;48.072;11.970;2023-03-01T06:38:11;-1.62;86.90
65207;SHT31;58477;48.072;11.970;2023-03-01T06:40:37;-1.56;86.72
65207;SHT31;58477;48.072;11.970;2023-03-01T06:43:02;-1.55;86.65
65207;SHT31;58477;48.072;11.970;2023-03-01T06:45:27;-1.49;86.91
65207;SHT31;58477;48.072;11.970;2023-03-01T06:48:01;-1.62;86.91
65207;SHT31;58477;48.072;11.970;2023-03-01T06:50:26;-1.53;87.01
65207;SHT31;58477;48.072;11.970;2023-03-01T06:52:56;-1.46;86.41
65207;SHT31;58477;48.072;11.970;2023-03-01T06:55:21;-1.53;86.42
65207;SHT31;58477;48.072;11.970;2023-03-01T06:57:47;-1.56;86.40
65207;SHT31;58477;48.072;11.970;2023-03-01T07:00:13;-1.50;86.53
65207;SHT31;58477;48.072;11.970;2023-03-01T07:02:39;-1.62;86.59
65207;SHT31;58477;48.072;11.970;2023-03-01T07:05:04;-1.58;86.70
65207;SHT31;58477;48.072;11.970;2023-03-01T07:07:30;-1.49;86.42
65207;SHT31;58477;48.072;11.970;2023-03-01T07:09:55;-1.48;86.26
65207;SHT31;58477;48.072;11.970;2023-03-01T07:12:20;-1.53;86.19
65207;SHT31;58477;48.072;11.970;2023-03-01T07:14:46;-1.52;86.36
65207;SHT31;58477;48.072;11.970;2023-03-01T07:17:11;-1.38;86.14
65207;SHT31;58477;48.072;11.970;2023-03-01T07:19:37;-1.24;85.86
65207;SHT31;58477;48.072;11.970;2023-03-01T07:22:03;-1.32;85.74
65207;SHT31;58477;48.072;11.970;2023-03-01T07:24:29;-1.32;85.95
65207;SHT31;58477;48.072;11.970;2023-03-01T07:26:55;-1.39;85.85
65207;SHT31;58477;48.072;11.970;2023-03-01T07:29:20;-1.38;85.87
65207;SHT31;58477;48.072;11.970;2023-03-01T07:31:45;-1.22;85.82
65207;SHT31;58477;48.072;11.970;2023-03-01T07:34:11;-1.12;85.87
65207;SHT31;58477;48.072;11.970;2023-03-01T07:36:37;-0.99;85.08
65207;SHT31;58477;48.072;11.970;2023-03-01T07:39:03;-1.06;85.16
65207;SHT31;58477;48.072;11.970;2023-03-01T07:41:29;-0.96;85.07
65207;SHT31;58477;48.072;11.970;2023-03-01T07:43:54;-0.99;84.85
65207;SHT31;58477;48.072;11.970;2023-03-01T07:46:20;-0.87;84.32
65207;SHT31;58477;48.072;11.970;2023-03-01T07:48:46;-0.99;84.97
65207;SHT31;58477;48.072;11.970;2023-03-01T07:51:12;-1.04;84.97
65207;SHT31;58477;48.072;11.970;2023-03-01T07:53:38;-0.96;85.31
65207;SHT31;58477;48.072;11.970;2023-03-01T07:56:07;-0.87;84.67
65207;SHT31;58477;48.072;11.970;2023-03-01T07:58:37;-0.85;84.34
65207;SHT31;58477;48.072;11.970;2023-03-01T08:11:21;-0.53;83.57
65207;SHT31;58477;48.072;11.970;2023-03-01T08:13:49;-0.20;82.99
65207;SHT31;58477;48.072;11.970;2023-03-01T08:16:15;0.08;82.34
65207;SHT31;58477;48.072;11.970;2023-03-01T08:18:42;-0.02;81.80
65207;SHT31;58477;48.072;11.970;2023-03-01T08:21:16;-0.24;82.31
65207;SHT31;58477;48.072;11.970;2023-03-01T08:23:42;-0.03;82.45
65207;SHT31;58477;48.072;11.970;2023-03-01T08:26:13;-0.27;82.67
65207;SHT31;58477;48.072;11.970;2023-03-01T08:28:40;-0.20;82.65
65207;SHT31;58477;48.072;11.970;2023-03-01T08:31:24;-0.21;82.41
65207;SHT31;58477;48.072;11.970;2023-03-01T08:33:53;-0.36;82.56
65207;SHT31;58477;48.072;11.970;2023-03-01T08:36:23;-0.26;82.39
65207;SHT31;58477;48.072;11.970;2023-03-01T08:38:49;-0.02;82.67
65207;SHT31;58477;48.072;11.970;2023-03-01T08:41:14;0.18;81.97
65207;SHT31;58477;48.072;11.970;2023-03-01T08:43:40;0.48;80.92
65207;SHT31;58477;48.072;11.970;2023-03-01T08:46:06;0.11;81.50
65207;SHT31;58477;48.072;11.970;2023-03-01T08:48:32;0.01;82.18
65207;SHT31;58477;48.072;11.970;2023-03-01T08:51:07;0.17;81.92
65207;SHT31;58477;48.072;11.970;2023-03-01T08:53:32;0.14;82.01
65207;SHT31;58477;48.072;11.970;2023-03-01T08:56:00;0.22;81.78
65207;SHT31;58477;48.072;11.970;2023-03-01T08:58:28;0.14;82.14
65207;SHT31;58477;48.072;11.970;2023-03-01T09:00:53;0.38;82.15
65207;SHT31;58477;48.072;11.970;2023-03-01T09:03:19;0.47;81.27
65207;SHT31;58477;48.072;11.970;2023-03-01T09:05:44;0.29;81.93
65207;SHT31;58477;48.072;11.970;2023-03-01T09:08:11;0.34;81.34
65207;SHT31;58477;48.072;11.970;2023-03-01T09:10:39;0.37;81.72
65207;SHT31;58477;48.072;11.970;2023-03-01T09:13:04;0.49;81.27
65207;SHT31;58477;48.072;11.970;2023-03-01T09:15:30;0.62;80.53
65207;SHT31;58477;48.072;11.970;2023-03-01T09:17:55;0.68;81.20
65207;SHT31;58477;48.072;11.970;2023-03-01T09:20:20;0.69;80.98
65207;SHT31;58477;48.072;11.970;2023-03-01T09:22:46;1.02;80.09
65207;SHT31;58477;48.072;11.970;2023-03-01T09:25:12;1.07;80.76
65207;SHT31;58477;48.072;11.970;2023-03-01T09:27:37;0.52;80.89
65207;SHT31;58477;48.072;11.970;2023-03-01T09:30:03;0.75;80.94
65207;SHT31;58477;48.072;11.970;2023-03-01T09:32:32;0.66;81.08
65207;SHT31;58477;48.072;11.970;2023-03-01T09:34:58;0.72;82.04
65207;SHT31;58477;48.072;11.970;2023-03-01T09:37:29;0.83;81.51
65207;SHT31;58477;48.072;11.970;2023-03-01T09:39:55;0.78;81.67
65207;SHT31;58477;48.072;11.970;2023-03-01T09:42:20;0.59;81.44
65207;SHT31;58477;48.072;11.970;2023-03-01T09:44:59;0.45;81.88
65207;SHT31;58477;48.072;11.970;2023-03-01T09:47:31;0.62;82.32
65207;SHT31;58477;48.072;11.970;2023-03-01T09:50:02;0.73;81.19
65207;SHT31;58477;48.072;11.970;2023-03-01T09:52:33;0.72;81.22
65207;SHT31;58477;48.072;11.970;2023-03-01T09:55:00;0.79;80.40
65207;SHT31;58477;48.072;11.970;2023-03-01T09:57:36;0.85;79.89
65207;SHT31;58477;48.072;11.970;2023-03-01T10:00:30;1.13;80.16
65207;SHT31;58477;48.072;11.970;2023-03-01T10:03:17;1.37;79.58
65207;SHT31;58477;48.072;11.970;2023-03-01T10:06:21;1.33;79.13
65207;SHT31;58477;48.072;11.970;2023-03-01T10:11:50;1.77;78.17
65207;SHT31;58477;48.072;11.970;2023-03-01T10:14:39;1.94;76.99
65207;SHT31;58477;48.072;11.970;2023-03-01T10:20:21;1.79;78.30
65207;SHT31;58477;48.072;11.970;2023-03-01T10:22:47;1.65;77.94
65207;SHT31;58477;48.072;11.970;2023-03-01T10:28:01;1.54;78.30
65207;SHT31;58477;48.072;11.970;2023-03-01T10:30:38;1.42;78.14
65207;SHT31;58477;48.072;11.970;2023-03-01T10:35:49;2.72;75.83
65207;SHT31;58477;48.072;11.970;2023-03-01T10:38:16;2.57;75.79
65207;SHT31;58477;48.072;11.970;2023-03-01T10:40:56;2.31;76.09
65207;SHT31;58477;48.072;11.970;2023-03-01T10:43:23;2.41;76.38
65207;SHT31;58477;48.072;11.970;2023-03-01T10:45:49;4.06;73.64
65207;SHT31;58477;48.072;11.970;2023-03-01T10:50:49;6.33;65.40
65207;SHT31;58477;48.072;11.970;2023-03-01T10:53:24;5.32;66.80
65207;SHT31;58477;48.072;11.970;2023-03-01T10:58:26;5.35;66.74
65207;SHT31;58477;48.072;11.970;2023-03-01T11:00:54;6.36;65.41
65207;SHT31;58477;48.072;11.970;2023-03-01T11:03:27;6.60;63.05
65207;SHT31;58477;48.072;11.970;2023-03-01T11:05:56;6.96;62.72
65207;SHT31;58477;48.072;11.970;2023-03-01T11:08:44;6.57;62.83
65207;SHT31;58477;48.072;11.970;2023-03-01T11:11:21;6.70;63.11
65207;SHT31;58477;48.072;11.970;2023-03-01T11:13:54;6.06;64.44
65207;SHT31;58477;48.072;11.970;2023-03-01T11:16:33;5.05;67.22
65207;SHT31;58477;48.072;11.970;2023-03-01T11:21:42;5.83;65.55
65207;SHT31;58477;48.072;11.970;2023-03-01T11:24:11;6.17;65.15
65207;SHT31;58477;48.072;11.970;2023-03-01T11:26:41;6.67;64.50
65207;SHT31;58477;48.072;11.970;2023-03-01T11:29:35;5.70;65.99
65207;SHT31;58477;48.072;11.970;2023-03-01T11:32:07;6.83;64.20
65207;SHT31;58477;48.072;11.970;2023-03-01T11:34:42;6.44;62.87
65207;SHT31;58477;48.072;11.970;2023-03-01T11:37:20;7.05;63.22
65207;SHT31;58477;48.072;11.970;2023-03-01T11:39:54;7.49;62.57
65207;SHT31;58477;48.072;11.970;2023-03-01T11:45:08;7.89;61.04
65207;SHT31;58477;48.072;11.970;2023-03-01T11:53:20;6.89;64.39
65207;SHT31;58477;48.072;11.970;2023-03-01T11:58:44;6.75;64.07
65207;SHT31;58477;48.072;11.970;2023-03-01T12:01:37;6.70;65.05
65207;SHT31;58477;48.072;11.970;2023-03-01T12:09:34;6.53;65.33
65207;SHT31;58477;48.072;11.970;2023-03-01T12:12:11;7.83;63.51
65207;SHT31;58477;48.072;11.970;2023-03-01T12:17:35;8.05;61.75
65207;SHT31;58477;48.072;11.970;2023-03-01T12:20:25;7.95;61.93
65207;SHT31;58477;48.072;11.970;2023-03-01T12:25:55;6.11;66.57
65207;SHT31;58477;48.072;11.970;2023-03-01T12:28:39;5.11;69.65
65207;SHT31;58477;48.072;11.970;2023-03-01T12:34:00;5.17;70.32
65207;SHT31;58477;48.072;11.970;2023-03-01T12:39:34;4.66;70.88
65207;SHT31;58477;48.072;11.970;2023-03-01T12:44:39;5.22;70.84
65207;SHT31;58477;48.072;11.970;2023-03-01T12:49:55;5.08;70.63
65207;SHT31;58477;48.072;11.970;2023-03-01T12:54:55;4.88;72.49
65207;SHT31;58477;48.072;11.970;2023-03-01T12:57:37;5.12;71.71
65207;SHT31;58477;48.072;11.970;2023-03-01T13:00:28;5.22;72.41
65207;SHT31;58477;48.072;11.970;2023-03-01T13:06:04;5.00;74.13
65207;SHT31;58477;48.072;11.970;2023-03-01T13:08:47;5.01;72.79
65207;SHT31;58477;48.072;11.970;2023-03-01T13:11:18;4.91;73.23
65207;SHT31;58477;48.072;11.970;2023-03-01T13:13:44;5.02;71.94
65207;SHT31;58477;48.072;11.970;2023-03-01T13:19:16;4.97;73.37
65207;SHT31;58477;48.072;11.970;2023-03-01T13:21:43;5.02;72.32
65207;SHT31;58477;48.072;11.970;2023-03-01T13:27:09;5.05;73.07
65207;SHT31;58477;48.072;11.970;2023-03-01T13:32:35;5.00;72.41
65207;SHT31;58477;48.072;11.970;2023-03-01T13:37:36;4.70;73.32
65207;SHT31;58477;48.072;11.970;2023-03-01T13:42:50;4.95;72.84
65207;SHT31;58477;48.072;11.970;2023-03-01T13:50:42;5.00;73.34
65207;SHT31;58477;48.072;11.970;2023-03-01T13:53:13;5.15;73.29
65207;SHT31;58477;48.072;11.970;2023-03-01T13:55:44;5.38;72.30
65207;SHT31;58477;48.072;11.970;2023-03-01T13:58:44;5.30;73.76
65207;SHT31;58477;48.072;11.970;2023-03-01T14:01:28;5.35;73.46
65207;SHT31;58477;48.072;11.970;2023-03-01T14:03:54;5.42;73.42
65207;SHT31;58477;48.072;11.970;2023-03-01T14:06:31;5.69;72.20
65207;SHT31;58477;48.072;11.970;2023-03-01T14:09:18;5.34;72.73
65207;SHT31;58477;48.072;11.970;2023-03-01T14:20:02;5.34;73.09
65207;SHT31;58477;48.072;11.970;2023-03-01T14:22:33;5.42;72.63
65207;SHT31;58477;48.072;11.970;2023-03-01T14:25:05;5.36;72.81
65207;SHT31;58477;48.072;11.970;2023-03-01T14:27:40;5.24;72.55
65207;SHT31;58477;48.072;11.970;2023-03-01T14:30:19;5.20;73.65
65207;SHT31;58477;48.072;11.970;2023-03-01T14:32:52;5.34;73.84
65207;SHT31;58477;48.072;11.970;2023-03-01T14:35:24;5.41;73.16
65207;SHT31;58477;48.072;11.970;2023-03-01T14:37:50;5.35;72.91
65207;SHT31;58477;48.072;11.970;2023-03-01T14:40:27;5.41;73.49
65207;SHT31;58477;48.072;11.970;2023-03-01T14:42:55;5.27;73.12
65207;SHT31;58477;48.072;11.970;2023-03-01T14:45:23;5.25;73.13
65207;SHT31;58477;48.072;11.970;2023-03-01T14:47:49;5.35;74.11
65207;SHT31;58477;48.072;11.970;2023-03-01T14:50:22;5.52;73.29
65207;SHT31;58477;48.072;11.970;2023-03-01T14:55:19;5.46;73.73
65207;SHT31;58477;48.072;11.970;2023-03-01T14:57:49;5.59;73.39
65207;SHT31;58477;48.072;11.970;2023-03-01T15:00:27;5.54;73.52
65207;SHT31;58477;48.072;11.970;2023-03-01T15:02:56;5.41;73.86
65207;SHT31;58477;48.072;11.970;2023-03-01T15:05:31;5.62;74.39
65207;SHT31;58477;48.072;11.970;2023-03-01T15:07:58;5.65;73.46
65207;SHT31;58477;48.072;11.970;2023-03-01T15:10:36;5.49;73.63
65207;SHT31;58477;48.072;11.970;2023-03-01T15:13:12;5.48;73.46
65207;SHT31;58477;48.072;11.970;2023-03-01T16:01:30;4.64;80.04
65207;SHT31;58477;48.072;11.970;2023-03-01T16:03:56;4.61;79.91
65207;SHT31;58477;48.072;11.970;2023-03-01T16:06:23;4.67;79.16
65207;SHT31;58477;48.072;11.970;2023-03-01T16:08:48;4.59;79.02
65207;SHT31;58477;48.072;11.970;2023-03-01T16:11:18;4.61;79.63
65207;SHT31;58477;48.072;11.970;2023-03-01T16:13:44;4.59;79.53
65207;SHT31;58477;48.072;11.970;2023-03-01T16:16:12;4.49;79.83
65207;SHT31;58477;48.072;11.970;2023-03-01T16:18:40;4.37;80.83
65207;SHT31;58477;48.072;11.970;2023-03-01T16:21:06;4.23;80.24
65207;SHT31;58477;48.072;11.970;2023-03-01T16:23:31;4.16;80.46
65207;SHT31;58477;48.072;11.970;2023-03-01T16:26:00;4.15;80.56
65207;SHT31;58477;48.072;11.970;2023-03-01T16:28:26;3.93;81.04
65207;SHT31;58477;48.072;11.970;2023-03-01T16:30:51;3.82;82.32
65207;SHT31;58477;48.072;11.970;2023-03-01T16:33:17;3.70;82.21
65207;SHT31;58477;48.072;11.970;2023-03-01T16:35:43;3.64;82.26
65207;SHT31;58477;48.072;11.970;2023-03-01T16:38:09;3.57;82.48
65207;SHT31;58477;48.072;11.970;2023-03-01T16:40:35;3.42;83.59
65207;SHT31;58477;48.072;11.970;2023-03-01T16:43:00;3.20;83.74
65207;SHT31;58477;48.072;11.970;2023-03-01T16:45:33;2.97;84.41
65207;SHT31;58477;48.072;11.970;2023-03-01T16:47:59;2.87;84.70
65207;SHT31;58477;48.072;11.970;2023-03-01T16:50:24;2.71;85.13
65207;SHT31;58477;48.072;11.970;2023-03-01T16:52:50;2.56;85.21
65207;SHT31;58477;48.072;11.970;2023-03-01T16:55:15;2.49;85.25
65207;SHT31;58477;48.072;11.970;2023-03-01T16:57:41;2.52;85.02
65207;SHT31;58477;48.072;11.970;2023-03-01T17:00:08;2.49;84.47
65207;SHT31;58477;48.072;11.970;2023-03-01T17:02:38;2.26;85.43
65207;SHT31;58477;48.072;11.970;2023-03-01T17:05:04;1.97;85.95
65207;SHT31;58477;48.072;11.970;2023-03-01T17:07:31;1.82;86.32
65207;SHT31;58477;48.072;11.970;2023-03-01T17:10:04;1.85;86.54
65207;SHT31;58477;48.072;11.970;2023-03-01T17:12:30;1.82;86.30
65207;SHT31;58477;48.072;11.970;2023-03-01T17:14:57;1.74;86.35
65207;SHT31;58477;48.072;11.970;2023-03-01T17:17:22;1.63;86.62
65207;SHT31;58477;48.072;11.970;2023-03-01T17:19:48;1.47;87.05
65207;SHT31;58477;48.072;11.970;2023-03-01T17:22:14;1.54;86.90
65207;SHT31;58477;48.072;11.970;2023-03-01T17:24:40;1.47;86.85
65207;SHT31;58477;48.072;11.970;2023-03-01T17:27:07;1.39;86.99
65207;SHT31;58477;48.072;11.970;2023-03-01T17:29:34;1.36;86.79
65207;SHT31;58477;48.072;11.970;2023-03-01T17:32:00;1.27;87.22
65207;SHT31;58477;48.072;11.970;2023-03-01T17:34:26;1.23;87.14
65207;SHT31;58477;48.072;11.970;2023-03-01T17:36:54;1.23;87.28
65207;SHT31;58477;48.072;11.970;2023-03-01T17:39:23;1.40;86.82
65207;SHT31;58477;48.072;11.970;2023-03-01T17:41:56;1.44;86.45
65207;SHT31;58477;48.072;11.970;2023-03-01T17:44:21;1.47;86.63
65207;SHT31;58477;48.072;11.970;2023-03-01T17:46:47;1.33;86.57
65207;SHT31;58477;48.072;11.970;2023-03-01T17:49:12;1.16;87.20
65207;SHT31;58477;48.072;11.970;2023-03-01T17:51:38;1.13;87.42
65207;SHT31;58477;48.072;11.970;2023-03-01T17:54:06;1.09;87.56
65207;SHT31;58477;48.072;11.970;2023-03-01T17:56:32;0.97;87.85
65207;SHT31;58477;48.072;11.970;2023-03-01T17:58:58;0.97;88.14
65207;SHT31;58477;48.072;11.970;2023-03-01T18:01:23;1.13;87.61
65207;SHT31;58477;48.072;11.970;2023-03-01T18:03:52;1.12;87.53
65207;SHT31;58477;48.072;11.970;2023-03-01T18:06:23;1.02;87.57